Time;durP1;ratioP1;P1;durP2;ratioP2;P2;SDS_P1;SDS_P2;PMS_P1;PMS_P2;Temp;Humidity;BMP_temperature;BMP_pressure;BME280_temperature;BME280_humidity;BME280_pressure;Samples;Min_cycle;Max_cycle;Signal;HPM_P1;HPM_P2
2022/08/29 00:02:03;;;;;;;7.65;2.42;;;16.50;1.00;;;;;;5070904;27;20695;-62
2022/08/29 00:04:30;;;;;;;10.20;2.50;;;16.50;1.00;;;;;;5103427;28;20199;-62
2022/08/29 00:06:57;;;;;;;5.85;2.22;;;16.40;1.00;;;;;;5084790;27;20207;-62
2022/08/29 00:09:24;;;;;;;6.97;2.50;;;16.70;1.00;;;;;;5076974;27;20214;-61
2022/08/29 00:11:50;;;;;;;6.65;2.83;;;16.80;1.00;;;;;;5094949;27;20195;-62
2022/08/29 00:14:17;;;;;;;5.95;2.53;;;16.50;1.00;;;;;;5099861;27;20203;-62
2022/08/29 00:16:45;;;;;;;7.65;2.45;;;;;;;;;;5092359;27;20199;-62
2022/08/29 00:19:13;;;;;;;4.50;2.53;;;16.20;1.00;;;;;;5098845;27;20207;-62
2022/08/29 00:21:40;;;;;;;13.10;2.40;;;16.40;1.00;;;;;;5087888;27;20233;-62
2022/08/29 00:24:07;;;;;;;7.68;2.40;;;16.60;1.00;;;;;;5074778;27;20687;-62
2022/08/29 00:26:34;;;;;;;6.40;2.30;;;16.40;1.00;;;;;;5084440;27;20209;-62
2022/08/29 00:29:01;;;;;;;8.95;2.42;;;16.60;1.00;;;;;;5087374;27;20779;-61
2022/08/29 00:31:28;;;;;;;7.55;2.60;;;16.40;1.00;;;;;;5080276;27;20208;-62
2022/08/29 00:33:56;;;;;;;5.90;2.50;;;16.50;1.00;;;;;;5104583;27;20192;-62
2022/08/29 00:36:24;;;;;;;7.75;2.40;;;16.20;1.00;;;;;;5097680;27;20205;-62
2022/08/29 00:38:51;;;;;;;9.80;2.80;;;16.40;1.00;;;;;;5093431;27;20199;-61
2022/08/29 00:41:18;;;;;;;6.88;2.20;;;;;;;;;;5071295;27;20219;-62
2022/08/29 00:43:46;;;;;;;5.22;2.33;;;16.40;1.00;;;;;;5086371;27;20199;-62
2022/08/29 00:46:47;;;;;;;5.97;2.20;;;16.50;1.00;;;;;;5090496;27;20208;-62
2022/08/29 00:49:24;;;;;;;7.90;2.38;;;16.50;1.00;;;;;;5091250;27;20596;-62
2022/08/29 00:51:54;;;;;;;8.43;2.25;;;16.50;1.00;;;;;;5100382;27;20209;-62
2022/08/29 00:54:22;;;;;;;6.15;2.60;;;16.50;1.00;;;;;;5085508;27;20199;-62
2022/08/29 00:56:50;;;;;;;13.43;3.75;;;16.30;1.00;;;;;;5080548;27;20762;-62
2022/08/29 00:59:20;;;;;;;6.60;2.60;;;16.50;1.00;;;;;;5080972;27;20217;-62
2022/08/29 01:01:47;;;;;;;10.07;3.20;;;16.50;1.00;;;;;;5090819;27;20920;-62
2022/08/29 01:04:13;;;;;;;8.73;2.60;;;16.20;1.00;;;;;;5089262;27;20206;-63
2022/08/29 01:06:41;;;;;;;14.40;3.22;;;16.40;1.00;;;;;;5101401;27;20206;-62
2022/08/29 01:09:10;;;;;;;5.78;2.35;;;16.50;1.00;;;;;;5088805;27;20253;-62
2022/08/29 01:14:26;;;;;;;12.30;3.20;;;16.20;1.00;;;;;;5083240;27;21007;-62
2022/08/29 01:16:55;;;;;;;10.88;2.55;;;16.30;1.00;;;;;;5087865;27;20309;-62
2022/08/29 01:19:37;;;;;;;6.68;2.58;;;16.30;1.00;;;;;;5088426;27;20954;-62
2022/08/29 01:22:12;;;;;;;9.40;2.60;;;16.50;1.00;;;;;;5095771;27;20226;-62
2022/08/29 01:24:42;;;;;;;7.53;2.50;;;16.30;1.00;;;;;;5096127;27;20257;-62
2022/08/29 01:27:13;;;;;;;3.83;2.45;;;16.30;1.00;;;;;;5073311;27;20222;-62
2022/08/29 01:29:40;;;;;;;11.32;3.70;;;16.30;1.40;;;;;;5101000;27;20203;-61
2022/08/29 01:32:07;;;;;;;6.55;2.78;;;15.60;5.00;;;;;;5078497;27;20992;-62
2022/08/29 01:34:33;;;;;;;7.38;2.22;;;16.30;8.80;;;;;;5091800;27;20218;-62
2022/08/29 01:37:02;;;;;;;6.38;2.72;;;16.40;18.40;;;;;;5101082;27;20206;-62
2022/08/29 01:39:31;;;;;;;10.48;3.00;;;16.50;21.60;;;;;;5087579;27;20195;-61
2022/08/29 01:42:02;;;;;;;8.50;2.67;;;16.50;20.50;;;;;;5078939;27;20226;-62
2022/08/29 01:44:29;;;;;;;10.02;2.88;;;16.60;22.80;;;;;;5097324;27;20201;-62
2022/08/29 01:46:59;;;;;;;9.10;2.17;;;16.40;21.50;;;;;;5086676;27;20199;-62
2022/08/29 01:49:26;;;;;;;12.65;4.55;;;16.70;23.80;;;;;;5085344;27;20195;-62
2022/08/29 01:51:53;;;;;;;8.05;2.65;;;16.40;27.40;;;;;;5089520;27;20214;-62
2022/08/29 01:54:20;;;;;;;8.23;2.83;;;16.30;29.80;;;;;;5084982;27;20206;-62
2022/08/29 01:56:50;;;;;;;6.28;2.28;;;16.10;40.20;;;;;;5073437;27;20209;-62
2022/08/29 01:59:22;;;;;;;9.02;2.63;;;16.30;41.60;;;;;;5097313;27;20206;-62
2022/08/29 02:01:54;;;;;;;6.50;2.58;;;16.20;42.90;;;;;;5082282;27;20235;-63
2022/08/29 02:04:21;;;;;;;7.93;2.92;;;16.30;41.60;;;;;;5084944;27;20690;-62
2022/08/29 02:06:49;;;;;;;6.97;2.58;;;15.40;57.10;;;;;;5091020;27;20200;-62
2022/08/29 02:09:16;;;;;;;9.80;3.00;;;16.40;61.10;;;;;;5100987;27;20202;-62
2022/08/29 02:11:45;;;;;;;10.70;2.80;;;16.30;58.70;;;;;;5087454;27;20199;-62
2022/08/29 02:14:12;;;;;;;5.18;2.95;;;16.80;60.60;;;;;;5082027;27;20779;-62
2022/08/29 02:16:40;;;;;;;5.18;2.45;;;16.30;62.90;;;;;;5087461;27;20203;-62
2022/08/29 02:19:07;;;;;;;9.80;2.83;;;16.40;69.60;;;;;;5097411;27;20247;-62
2022/08/29 02:21:34;;;;;;;15.32;2.65;;;16.30;67.80;;;;;;5093351;27;20198;-62
2022/08/29 02:24:04;;;;;;;8.43;2.88;;;16.50;75.60;;;;;;5089608;27;20218;-62
2022/08/29 02:26:31;;;;;;;9.68;3.20;;;16.30;72.10;;;;;;5091660;27;20206;-62
2022/08/29 02:28:58;;;;;;;6.47;2.70;;;16.40;79.20;;;;;;5075459;27;20691;-62
2022/08/29 02:31:25;;;;;;;10.85;3.65;;;16.60;87.30;;;;;;5102705;27;20682;-62
2022/08/29 02:33:54;;;;;;;6.03;3.03;;;16.40;84.30;;;;;;5083810;27;20203;-63
2022/08/29 02:36:21;;;;;;;9.63;3.83;;;16.30;89.20;;;;;;5088567;27;20206;-62
2022/08/29 02:38:49;;;;;;;12.48;3.63;;;16.60;87.60;;;;;;5090962;27;20195;-62
2022/08/29 02:41:16;;;;;;;15.32;2.95;;;16.60;88.00;;;;;;5088813;27;20204;-62
2022/08/29 02:43:43;;;;;;;12.15;3.67;;;16.70;89.60;;;;;;5074331;27;20224;-62
2022/08/29 02:46:14;;;;;;;11.77;3.40;;;16.80;90.30;;;;;;5093991;27;20255;-62
2022/08/29 02:48:42;;;;;;;11.23;3.08;;;16.70;91.70;;;;;;5084483;27;20214;-63
2022/08/29 02:51:11;;;;;;;16.13;3.72;;;16.80;90.80;;;;;;5098715;27;20300;-62
2022/08/29 02:53:38;;;;;;;11.57;3.15;;;16.90;92.00;;;;;;5091417;27;20203;-62
2022/08/29 02:56:05;;;;;;;10.05;4.28;;;16.80;91.10;;;;;;5086841;27;21191;-62
2022/08/29 02:58:33;;;;;;;9.77;3.58;;;16.80;91.30;;;;;;5078619;27;20203;-62
2022/08/29 03:00:59;;;;;;;9.63;3.25;;;16.80;91.30;;;;;;5086674;27;20223;-62
2022/08/29 03:03:27;;;;;;;11.90;2.95;;;16.80;91.50;;;;;;5084730;27;20236;-62
2022/08/29 03:05:55;;;;;;;10.15;3.83;;;16.70;93.00;;;;;;5075736;27;20226;-62
2022/08/29 03:08:23;;;;;;;9.85;3.40;;;;;;;;;;5096850;27;20226;-62
2022/08/29 03:10:50;;;;;;;7.40;2.78;;;15.10;93.30;;;;;;5086732;27;20202;-63
2022/08/29 03:13:18;;;;;;;10.77;3.17;;;13.80;92.20;;;;;;5058478;27;21031;-63
2022/08/29 03:15:45;;;;;;;7.57;3.35;;;;;;;;;;5096541;27;20191;-62
2022/08/29 03:18:13;;;;;;;10.90;4.03;;;16.50;93.60;;;;;;5081571;27;20214;-62
2022/08/29 03:20:40;;;;;;;9.05;3.53;;;16.70;92.30;;;;;;5087841;27;20968;-62
2022/08/29 03:23:07;;;;;;;14.02;3.33;;;16.70;93.90;;;;;;5083632;27;20234;-62
2022/08/29 03:25:36;;;;;;;7.68;3.10;;;16.70;92.60;;;;;;5096822;27;20202;-63
2022/08/29 03:28:03;;;;;;;8.50;3.08;;;16.70;95.20;;;;;;5044538;27;20222;-67
2022/08/29 03:30:30;;;;;;;11.00;3.33;;;16.60;93.10;;;;;;5090639;27;20214;-62
2022/08/29 03:32:57;;;;;;;13.40;3.35;;;16.20;94.90;;;;;;5080390;27;20215;-63
2022/08/29 03:35:24;;;;;;;13.32;3.42;;;17.50;96.40;;;;;;5080449;27;20992;-63
2022/08/29 03:37:54;;;;;;;6.35;3.45;;;16.60;93.70;;;;;;5078957;27;20293;-62
2022/08/29 03:40:22;;;;;;;14.75;3.85;;;16.70;95.70;;;;;;5093001;27;20207;-62
2022/08/29 03:42:50;;;;;;;9.82;3.30;;;16.60;94.60;;;;;;5075133;27;23416;-62
2022/08/29 03:45:18;;;;;;;8.88;3.47;;;16.60;94.60;;;;;;5071499;27;20676;-62
2022/08/29 03:47:46;;;;;;;8.52;3.83;;;16.70;95.00;;;;;;5083229;27;20203;-62
2022/08/29 03:50:14;;;;;;;11.10;3.67;;;16.80;95.40;;;;;;5081101;27;20210;-62
2022/08/29 03:52:41;;;;;;;7.55;3.50;;;16.90;97.40;;;;;;5077795;28;20211;-62
2022/08/29 03:55:10;;;;;;;12.07;3.67;;;16.80;95.70;;;;;;5096800;27;20196;-63
2022/08/29 03:57:37;;;;;;;12.88;4.55;;;16.60;96.40;;;;;;5081982;27;20255;-62
2022/08/29 04:00:10;;;;;;;15.55;3.70;;;16.80;95.90;;;;;;5075722;27;20709;-62
2022/08/29 04:02:38;;;;;;;8.50;3.58;;;16.90;95.60;;;;;;5089334;27;20221;-63
2022/08/29 04:05:09;;;;;;;14.63;3.70;;;16.80;95.80;;;;;;5070528;27;20707;-62
2022/08/29 04:07:48;;;;;;;13.77;3.88;;;16.80;96.00;;;;;;5077705;27;20226;-63
2022/08/29 04:10:19;;;;;;;10.23;3.22;;;16.80;96.10;;;;;;5074063;27;20207;-62
2022/08/29 04:12:45;;;;;;;13.25;3.63;;;16.80;96.30;;;;;;5081413;27;20805;-62
2022/08/29 04:15:14;;;;;;;15.82;3.85;;;16.80;96.40;;;;;;5052187;27;20206;-62
2022/08/29 04:17:41;;;;;;;10.38;3.95;;;16.80;96.60;;;;;;5089604;27;20278;-62
2022/08/29 04:20:10;;;;;;;15.50;3.45;;;16.80;98.10;;;;;;5091917;27;20215;-62
2022/08/29 04:22:39;;;;;;;9.52;4.35;;;16.80;97.00;;;;;;5076766;27;20221;-63
2022/08/29 04:25:09;;;;;;;9.48;3.70;;;16.60;97.90;;;;;;5083960;27;20223;-62
2022/08/29 04:27:36;;;;;;;15.70;4.18;;;16.80;97.30;;;;;;5091061;27;20205;-62
2022/08/29 04:30:06;;;;;;;10.88;3.55;;;16.80;97.40;;;;;;5079177;27;20210;-62
2022/08/29 04:32:34;;;;;;;10.73;3.35;;;16.80;97.60;;;;;;5065941;27;20207;-63
2022/08/29 04:35:02;;;;;;;11.50;3.70;;;16.80;97.70;;;;;;5083346;27;20199;-63
2022/08/29 04:37:29;;;;;;;10.50;3.53;;;16.90;99.70;;;;;;5065848;27;20602;-62
2022/08/29 04:39:56;;;;;;;10.70;4.13;;;16.70;98.20;;;;;;5081659;27;20791;-62
2022/08/29 04:42:23;;;;;;;12.68;3.38;;;16.90;98.30;;;;;;5083419;27;20269;-62
2022/08/29 04:44:50;;;;;;;14.95;3.67;;;16.90;99.60;;;;;;5076061;27;20203;-62
2022/08/29 04:47:20;;;;;;;10.98;3.95;;;16.80;98.70;;;;;;5067955;27;20695;-62
2022/08/29 04:49:53;;;;;;;11.20;3.90;;;16.80;98.70;;;;;;5086230;27;20199;-62
2022/08/29 04:52:19;;;;;;;9.57;3.90;;;16.90;99.90;;;;;;5082206;27;20204;-62
2022/08/29 04:54:46;;;;;;;9.13;3.60;;;17.30;99.90;;;;;;5081483;27;20213;-63
2022/08/29 04:57:13;;;;;;;8.80;4.07;;;17.90;99.90;;;;;;5093456;27;20624;-62
2022/08/29 04:59:40;;;;;;;13.57;4.53;;;16.90;99.50;;;;;;5069674;27;20236;-62
2022/08/29 05:02:07;;;;;;;13.88;3.90;;;17.00;99.70;;;;;;5063134;27;20297;-62
2022/08/29 05:04:33;;;;;;;9.02;3.58;;;17.00;99.90;;;;;;5084653;27;20911;-63
2022/08/29 05:07:01;;;;;;;11.95;4.15;;;16.90;99.90;;;;;;5080816;27;20592;-62
2022/08/29 05:09:28;;;;;;;12.80;3.90;;;17.10;99.90;;;;;;5091589;27;20219;-62
2022/08/29 05:11:55;;;;;;;17.00;4.25;;;17.10;99.90;;;;;;5082331;27;20220;-63
2022/08/29 05:14:22;;;;;;;8.80;3.83;;;17.10;99.90;;;;;;5095658;27;20215;-62
2022/08/29 05:16:49;;;;;;;11.45;4.15;;;17.20;99.90;;;;;;5076828;27;20215;-63
2022/08/29 05:19:16;;;;;;;14.23;3.60;;;17.30;99.90;;;;;;5104588;27;20279;-62
2022/08/29 05:21:43;;;;;;;12.40;3.38;;;17.40;99.90;;;;;;5072816;27;20206;-62
2022/08/29 05:24:12;;;;;;;8.25;3.45;;;17.50;99.90;;;;;;5103738;27;20238;-62
2022/08/29 05:26:42;;;;;;;14.23;4.28;;;17.50;99.90;;;;;;5082242;27;20215;-63
2022/08/29 05:29:10;;;;;;;7.43;3.65;;;17.80;99.90;;;;;;5089267;27;20906;-62
2022/08/29 05:31:37;;;;;;;9.35;4.35;;;17.70;99.90;;;;;;5078101;27;20223;-63
2022/08/29 05:34:05;;;;;;;10.48;4.03;;;17.70;99.90;;;;;;5081041;27;20293;-63
2022/08/29 05:36:32;;;;;;;14.45;4.30;;;18.40;99.90;;;;;;5082711;27;20961;-63
2022/08/29 05:38:59;;;;;;;15.05;3.78;;;17.80;99.90;;;;;;5089515;27;20226;-63
2022/08/29 05:41:27;;;;;;;15.30;5.43;;;17.80;99.90;;;;;;5086718;27;20203;-63
2022/08/29 05:43:54;;;;;;;15.95;4.32;;;17.60;99.90;;;;;;5097657;27;20231;-62
2022/08/29 05:46:21;;;;;;;12.07;5.10;;;17.90;99.90;;;;;;5087127;27;21721;-62
2022/08/29 05:48:48;;;;;;;14.23;4.68;;;17.90;99.90;;;;;;5074462;27;20237;-62
2022/08/29 05:51:17;;;;;;;11.60;5.20;;;17.90;99.90;;;;;;5091334;27;20252;-62
2022/08/29 05:53:44;;;;;;;13.93;5.22;;;17.90;99.90;;;;;;5095439;27;20956;-63
2022/08/29 05:56:11;;;;;;;11.52;5.38;;;17.90;99.90;;;;;;5097838;27;20222;-63
2022/08/29 05:58:39;;;;;;;11.45;4.50;;;18.00;99.90;;;;;;5090846;27;20248;-63
2022/08/29 06:01:06;;;;;;;12.85;4.50;;;18.00;99.90;;;;;;5104893;27;20191;-63
2022/08/29 06:03:33;;;;;;;13.30;4.57;;;18.10;99.90;;;;;;5078183;27;20743;-63
2022/08/29 06:06:00;;;;;;;12.00;4.70;;;18.00;99.90;;;;;;5104466;27;20896;-63
2022/08/29 06:08:26;;;;;;;17.60;4.97;;;18.00;99.90;;;;;;5082839;27;20214;-62
2022/08/29 06:10:53;;;;;;;17.60;4.55;;;18.10;99.90;;;;;;5110391;27;20198;-63
2022/08/29 06:13:20;;;;;;;17.48;4.97;;;18.10;99.90;;;;;;5097058;27;20203;-63
2022/08/29 06:15:48;;;;;;;10.68;4.40;;;18.20;99.90;;;;;;5096923;27;20207;-63
2022/08/29 06:18:15;;;;;;;16.67;4.38;;;18.00;99.90;;;;;;5099035;27;20204;-63
2022/08/29 06:20:42;;;;;;;9.43;4.38;;;18.20;99.90;;;;;;5087800;27;20215;-62
2022/08/29 06:23:09;;;;;;;15.02;4.70;;;18.30;99.90;;;;;;5089932;27;20723;-63
2022/08/29 06:25:35;;;;;;;15.70;4.88;;;18.20;99.90;;;;;;5098668;27;20191;-63
2022/08/29 06:28:02;;;;;;;17.55;5.10;;;18.30;99.90;;;;;;5107158;27;20954;-63
2022/08/29 06:30:32;;;;;;;19.40;6.22;;;18.30;99.90;;;;;;5087131;27;20217;-63
2022/08/29 06:33:01;;;;;;;8.13;4.28;;;18.30;99.90;;;;;;5106163;27;20568;-63
2022/08/29 06:35:28;;;;;;;11.35;4.85;;;18.30;99.90;;;;;;5073511;27;20203;-64
2022/08/29 06:37:55;;;;;;;15.55;4.88;;;17.80;99.90;;;;;;5087012;27;20211;-63
2022/08/29 06:40:22;;;;;;;19.02;5.25;;;18.50;99.90;;;;;;5099340;27;20664;-63
2022/08/29 06:42:49;;;;;;;13.82;4.65;;;18.50;99.90;;;;;;5106284;27;20902;-63
2022/08/29 06:45:17;;;;;;;12.00;4.05;;;18.50;99.90;;;;;;5100483;27;20203;-63
2022/08/29 06:47:46;;;;;;;12.45;4.75;;;18.60;99.90;;;;;;5095455;27;20205;-63
2022/08/29 06:50:14;;;;;;;19.45;5.00;;;18.70;99.90;;;;;;5084807;27;20222;-63
2022/08/29 06:52:41;;;;;;;12.88;4.55;;;18.80;99.90;;;;;;5108721;27;20202;-63
2022/08/29 06:55:10;;;;;;;11.93;5.07;;;18.60;99.90;;;;;;5086908;27;20301;-63
2022/08/29 06:57:41;;;;;;;12.32;5.22;;;18.70;99.90;;;;;;5106533;27;20210;-63
2022/08/29 07:00:09;;;;;;;11.23;4.57;;;18.70;99.90;;;;;;5105495;27;20845;-63
2022/08/29 07:02:36;;;;;;;13.15;5.10;;;18.70;99.90;;;;;;5093713;27;20231;-62
2022/08/29 07:05:03;;;;;;;12.18;4.65;;;18.90;99.90;;;;;;5103743;27;20226;-63
2022/08/29 07:07:32;;;;;;;11.50;4.75;;;18.70;99.90;;;;;;5078357;27;20371;-63
2022/08/29 07:09:59;;;;;;;9.98;4.43;;;18.60;99.90;;;;;;5088745;27;20862;-63
2022/08/29 07:12:26;;;;;;;12.23;4.70;;;19.20;99.90;;;;;;5107353;27;20194;-63
2022/08/29 07:14:54;;;;;;;12.25;4.82;;;18.70;99.90;;;;;;5103304;27;20195;-63
2022/08/29 07:17:20;;;;;;;11.85;4.13;;;18.80;99.90;;;;;;5092414;27;20686;-63
2022/08/29 07:19:47;;;;;;;12.48;5.03;;;18.80;99.90;;;;;;5101986;27;20195;-63
2022/08/29 07:22:14;;;;;;;8.02;4.28;;;18.90;99.90;;;;;;5080338;27;20987;-63
2022/08/29 07:24:42;;;;;;;19.60;4.70;;;18.90;99.90;;;;;;5086509;27;20231;-63
2022/08/29 07:27:11;;;;;;;8.48;4.38;;;18.80;99.90;;;;;;5106719;27;20215;-63
2022/08/29 07:29:38;;;;;;;12.95;4.45;;;18.90;99.90;;;;;;5105366;27;20202;-63
2022/08/29 07:32:05;;;;;;;11.80;4.95;;;19.10;99.90;;;;;;5093628;27;20233;-63
2022/08/29 07:34:32;;;;;;;11.75;5.07;;;19.10;99.90;;;;;;5077345;27;20223;-63
2022/08/29 07:36:59;;;;;;;12.27;4.68;;;19.20;99.90;;;;;;5071842;27;20226;-64
2022/08/29 07:39:26;;;;;;;8.68;4.43;;;19.10;99.90;;;;;;5082478;27;20219;-63
2022/08/29 07:41:54;;;;;;;7.53;4.65;;;19.20;99.90;;;;;;5086298;27;20209;-63
2022/08/29 07:44:21;;;;;;;5.28;3.78;;;19.70;99.90;;;;;;5103866;27;20727;-63
2022/08/29 07:46:49;;;;;;;11.32;4.65;;;19.60;99.90;;;;;;5104847;27;20776;-63
2022/08/29 07:49:16;;;;;;;11.07;4.53;;;19.50;99.90;;;;;;5089619;27;20202;-63
2022/08/29 07:51:43;;;;;;;11.48;4.68;;;19.50;99.90;;;;;;5093884;27;20309;-63
2022/08/29 07:54:09;;;;;;;10.63;5.03;;;19.50;99.90;;;;;;5069991;27;20230;-63
2022/08/29 07:56:41;;;;;;;8.15;4.25;;;19.60;99.90;;;;;;5080400;27;20289;-63
2022/08/29 07:59:10;;;;;;;9.50;4.43;;;19.50;99.90;;;;;;5105530;27;20199;-63
2022/08/29 08:01:37;;;;;;;8.95;3.58;;;19.40;99.90;;;;;;5099266;27;20199;-63
2022/08/29 08:04:04;;;;;;;5.38;3.45;;;19.00;99.90;;;;;;5095749;27;20226;-63
2022/08/29 08:06:32;;;;;;;7.07;3.47;;;;;;;;;;5102625;27;20199;-63
2022/08/29 08:08:58;;;;;;;4.72;3.38;;;19.30;99.90;;;;;;5083043;27;21037;-63
2022/08/29 08:11:26;;;;;;;4.10;2.38;;;19.10;99.90;;;;;;5093267;27;20219;-63
2022/08/29 08:13:54;;;;;;;9.43;2.50;;;18.80;99.90;;;;;;5087883;27;20233;-63
2022/08/29 08:16:24;;;;;;;2.33;1.95;;;19.00;99.90;;;;;;5083040;27;20199;-64
2022/08/29 08:18:52;;;;;;;3.92;2.47;;;19.00;98.70;;;;;;5087000;27;20252;-63
2022/08/29 08:21:19;;;;;;;3.08;2.08;;;19.00;98.80;;;;;;5096414;27;20195;-63
2022/08/29 08:23:47;;;;;;;2.97;1.58;;;19.00;96.80;;;;;;5096415;27;20222;-63
2022/08/29 08:26:14;;;;;;;1.85;1.60;;;18.60;92.30;;;;;;5073263;27;20222;-63
2022/08/29 08:28:42;;;;;;;5.30;1.70;;;18.80;91.80;;;;;;5084111;27;21033;-63
2022/08/29 08:31:10;;;;;;;1.60;1.50;;;18.90;91.00;;;;;;5101966;27;20228;-63
2022/08/29 08:33:40;;;;;;;1.80;1.70;;;19.00;89.70;;;;;;5108061;27;20203;-64
2022/08/29 08:36:13;;;;;;;2.10;1.70;;;18.90;88.10;;;;;;5090782;27;20203;-63
2022/08/29 08:38:40;;;;;;;5.63;2.50;;;19.00;84.50;;;;;;5092394;27;20222;-64
2022/08/29 08:41:17;;;;;;;1.75;1.65;;;19.00;84.70;;;;;;5080343;27;20206;-63
2022/08/29 08:43:52;;;;;;;4.47;1.70;;;19.10;78.20;;;;;;5105294;27;20744;-63
2022/08/29 08:46:23;;;;;;;2.45;1.85;;;19.10;74.00;;;;;;5085626;27;20214;-63
2022/08/29 08:48:55;;;;;;;2.85;1.75;;;19.10;65.00;;;;;;5104302;27;20206;-64
2022/08/29 08:51:28;;;;;;;3.03;1.83;;;19.10;65.70;;;;;;5089225;27;20258;-63
2022/08/29 08:53:58;;;;;;;2.55;1.73;;;19.20;59.50;;;;;;5096469;27;20699;-63
2022/08/29 08:56:32;;;;;;;3.33;1.80;;;19.30;57.10;;;;;;5082995;27;20203;-63
2022/08/29 08:59:06;;;;;;;2.25;1.73;;;19.10;48.10;;;;;;5100433;27;20704;-63
2022/08/29 09:01:37;;;;;;;2.13;1.88;;;19.20;46.00;;;;;;5091776;27;20290;-63
2022/08/29 09:04:21;;;;;;;2.42;1.80;;;19.20;43.20;;;;;;5101991;27;20704;-63
2022/08/29 09:07:00;;;;;;;2.78;1.70;;;19.30;44.40;;;;;;5088910;27;20195;-63
2022/08/29 09:09:37;;;;;;;1.83;1.50;;;19.30;39.40;;;;;;5091662;27;20204;-63
2022/08/29 09:12:15;;;;;;;2.38;1.50;;;19.10;37.80;;;;;;5077276;27;20215;-63
2022/08/29 09:14:52;;;;;;;7.00;2.28;;;19.40;37.60;;;;;;5086773;27;20222;-63
2022/08/29 09:17:24;;;;;;;3.15;1.60;;;19.40;35.00;;;;;;5102199;27;20201;-63
2022/08/29 09:19:56;;;;;;;2.30;1.50;;;19.50;32.50;;;;;;5104004;27;20228;-63
2022/08/29 09:22:25;;;;;;;2.00;1.48;;;19.50;23.10;;;;;;5084949;27;20286;-63
2022/08/29 09:24:57;;;;;;;2.00;1.50;;;19.60;25.00;;;;;;5103587;27;20229;-63
2022/08/29 09:27:27;;;;;;;2.45;1.30;;;19.60;26.00;;;;;;5075972;27;20203;-63
2022/08/29 09:30:03;;;;;;;4.28;1.63;;;19.60;18.50;;;;;;5100468;27;20271;-63
2022/08/29 09:32:30;;;;;;;5.82;1.50;;;19.60;24.60;;;;;;5090894;27;20203;-63
2022/08/29 09:34:59;;;;;;;5.38;1.23;;;19.60;25.80;;;;;;5101790;27;20195;-63
2022/08/29 09:37:28;;;;;;;1.52;1.23;;;19.60;7.80;;;;;;5088680;27;20199;-63
2022/08/29 09:40:00;;;;;;;2.10;1.30;;;19.60;7.00;;;;;;5091589;27;20288;-63
2022/08/29 09:42:35;;;;;;;1.75;1.50;;;19.50;5.80;;;;;;5072758;27;20201;-63
2022/08/29 09:45:16;;;;;;;5.18;1.40;;;19.60;4.10;;;;;;5104130;27;21264;-62
2022/08/29 09:47:44;;;;;;;3.58;1.40;;;19.60;1.00;;;;;;5103634;27;20588;-63
2022/08/29 09:50:19;;;;;;;3.67;1.40;;;19.80;1.00;;;;;;5099044;27;20222;-63
2022/08/29 09:52:53;;;;;;;3.65;1.40;;;19.90;1.00;;;;;;5091797;27;20210;-63
2022/08/29 09:55:24;;;;;;;2.10;1.20;;;20.00;1.00;;;;;;5093127;27;20660;-63
2022/08/29 09:57:53;;;;;;;2.08;1.50;;;20.60;1.00;;;;;;5072370;27;20203;-63
2022/08/29 10:00:26;;;;;;;1.92;1.27;;;20.40;1.00;;;;;;5094413;27;20203;-63
2022/08/29 10:02:55;;;;;;;1.83;1.60;;;20.00;1.00;;;;;;5088168;27;20203;-63
2022/08/29 10:05:43;;;;;;;2.42;1.67;;;20.10;1.00;;;;;;5097927;27;20230;-63
2022/08/29 10:08:29;;;;;;;4.28;1.20;;;20.20;1.00;;;;;;5087914;27;20725;-63
2022/08/29 10:10:58;;;;;;;2.10;1.27;;;20.30;1.00;;;;;;5101848;27;20195;-63
2022/08/29 10:13:33;;;;;;;1.30;1.20;;;20.20;1.00;;;;;;5078858;27;21032;-63
2022/08/29 10:16:16;;;;;;;1.80;1.20;;;20.30;1.00;;;;;;5100277;27;20676;-63
2022/08/29 10:18:48;;;;;;;3.08;1.45;;;20.30;1.00;;;;;;5096216;27;20735;-63
2022/08/29 10:21:32;;;;;;;1.60;1.15;;;20.30;1.00;;;;;;5106730;27;20207;-62
2022/08/29 10:24:16;;;;;;;1.40;1.30;;;20.30;1.00;;;;;;5104945;27;20195;-63
2022/08/29 10:26:51;;;;;;;1.38;1.15;;;20.50;1.00;;;;;;5104044;27;20198;-63
2022/08/29 10:29:29;;;;;;;1.80;1.27;;;20.40;1.00;;;;;;5076670;27;20207;-63
2022/08/29 10:32:07;;;;;;;3.97;1.63;;;20.40;1.00;;;;;;5086115;27;20210;-63
2022/08/29 10:34:44;;;;;;;2.05;1.15;;;20.30;1.00;;;;;;5104727;27;20187;-63
2022/08/29 10:37:19;;;;;;;3.05;1.60;;;20.30;1.00;;;;;;5096688;27;20203;-63
2022/08/29 10:39:53;;;;;;;3.97;1.58;;;20.40;1.00;;;;;;5102770;27;20207;-63
2022/08/29 10:42:24;;;;;;;3.72;1.40;;;20.40;1.00;;;;;;5098637;27;20203;-63
2022/08/29 10:45:02;;;;;;;2.55;1.02;;;20.50;1.00;;;;;;5084007;27;20226;-63
2022/08/29 10:47:34;;;;;;;1.00;0.90;;;20.40;1.00;;;;;;5077577;27;20207;-63
2022/08/29 10:50:15;;;;;;;2.63;1.25;;;20.50;99.90;;;;;;5101947;27;20202;-63
2022/08/29 10:52:54;;;;;;;1.40;1.23;;;20.60;1.00;;;;;;5095132;27;20197;-63
2022/08/29 10:55:34;;;;;;;1.30;1.20;;;20.50;1.00;;;;;;5085775;27;20210;-63
2022/08/29 10:58:06;;;;;;;2.50;1.52;;;20.60;1.00;;;;;;5103194;27;20203;-63
2022/08/29 11:00:42;;;;;;;1.48;1.00;;;20.70;36.60;;;;;;5066185;27;20206;-63
2022/08/29 11:03:19;;;;;;;1.65;1.20;;;20.70;1.00;;;;;;5082530;27;20275;-63
2022/08/29 11:05:53;;;;;;;1.23;0.98;;;20.70;99.90;;;;;;5088936;27;20765;-63
2022/08/29 11:08:27;;;;;;;2.10;1.30;;;20.70;99.90;;;;;;5092241;27;20235;-63
2022/08/29 11:10:54;;;;;;;1.85;1.25;;;20.80;18.10;;;;;;5100137;27;20194;-63
2022/08/29 11:13:26;;;;;;;3.03;1.30;;;20.60;33.80;;;;;;5100085;27;20211;-63
2022/08/29 11:16:02;;;;;;;1.88;1.05;;;20.60;1.00;;;;;;5079049;27;20199;-63
2022/08/29 11:18:34;;;;;;;1.20;1.10;;;20.70;99.90;;;;;;5081396;27;20675;-63
2022/08/29 11:21:12;;;;;;;2.15;1.30;;;20.90;1.00;;;;;;5094225;27;20203;-62
2022/08/29 11:23:43;;;;;;;1.20;1.10;;;20.60;1.00;;;;;;5087117;27;20198;-62
2022/08/29 11:26:20;;;;;;;1.58;1.00;;;20.50;1.00;;;;;;5084539;27;20237;-63
2022/08/29 11:28:55;;;;;;;2.50;1.35;;;20.50;1.00;;;;;;5101189;27;20198;-63
2022/08/29 11:31:33;;;;;;;1.55;1.17;;;20.90;1.00;;;;;;5073499;27;22065;-63
2022/08/29 11:34:04;;;;;;;1.42;1.00;;;;;;;;;;5080916;27;20214;-63
2022/08/29 11:36:48;;;;;;;2.88;0.93;;;20.60;99.90;;;;;;5090210;27;20715;-62
2022/08/29 11:39:48;;;;;;;1.10;1.00;;;20.50;99.90;;;;;;5084934;27;20238;-62
2022/08/29 11:42:18;;;;;;;2.90;1.17;;;21.40;1.00;;;;;;5095480;27;20226;-62
2022/08/29 11:44:48;;;;;;;1.55;1.00;;;20.70;1.00;;;;;;5090901;27;20231;-63
2022/08/29 11:47:55;;;;;;;1.23;1.13;;;20.70;1.00;;;;;;5071501;27;20237;-62
2022/08/29 11:50:29;;;;;;;2.22;1.10;;;20.80;1.00;;;;;;5080733;28;20223;-63
2022/08/29 11:53:07;;;;;;;2.28;1.00;;;20.80;1.00;;;;;;5086043;27;20237;-62
2022/08/29 11:55:38;;;;;;;3.03;1.02;;;21.10;1.00;;;;;;5078570;28;20223;-63
2022/08/29 11:58:28;;;;;;;1.20;1.10;;;20.90;99.90;;;;;;5057389;27;21400;-62
2022/08/29 12:00:56;;;;;;;1.52;1.23;;;21.00;99.90;;;;;;5071601;27;20222;-63
2022/08/29 12:03:53;;;;;;;1.85;1.00;;;20.80;99.90;;;;;;5050828;27;21603;-62
2022/08/29 12:06:57;;;;;;;1.27;1.00;;;20.70;1.00;;;;;;5065476;27;20234;-63
2022/08/29 12:09:46;;;;;;;3.03;1.13;;;20.60;1.00;;;;;;5081804;27;20344;-63
2022/08/29 12:12:37;;;;;;;1.33;1.00;;;20.60;99.90;;;;;;5097417;27;20230;-63
2022/08/29 12:15:46;;;;;;;3.22;1.45;;;20.60;99.90;;;;;;5100644;27;20206;-62
2022/08/29 12:18:45;;;;;;;1.50;1.13;;;20.60;1.00;;;;;;5073502;27;20310;-61
2022/08/29 12:21:32;;;;;;;1.52;1.20;;;20.80;1.00;;;;;;5063425;27;20869;-61
2022/08/29 12:23:59;;;;;;;3.53;1.98;;;;;;;;;;5093043;27;20223;-62
2022/08/29 12:26:39;;;;;;;3.17;1.25;;;20.60;1.00;;;;;;5082425;27;20757;-61
2022/08/29 12:29:16;;;;;;;2.45;1.23;;;20.60;25.40;;;;;;5095865;27;20351;-61
2022/08/29 12:32:16;;;;;;;1.20;1.08;;;19.80;1.00;;;;;;5080344;27;20222;-62
2022/08/29 12:34:53;;;;;;;5.85;1.33;;;20.60;99.90;;;;;;5075338;27;20228;-62
2022/08/29 12:37:32;;;;;;;1.75;1.00;;;20.70;99.90;;;;;;5074797;27;20226;-63
2022/08/29 12:40:21;;;;;;;5.15;1.15;;;20.70;1.00;;;;;;5096789;27;20535;-62
2022/08/29 12:43:01;;;;;;;2.38;1.20;;;20.70;99.90;;;;;;5084657;27;20230;-62
2022/08/29 12:45:30;;;;;;;4.53;1.42;;;20.70;99.90;;;;;;5096040;27;20222;-62
2022/08/29 12:48:01;;;;;;;2.50;1.20;;;20.70;99.90;;;;;;5097754;27;20205;-62
2022/08/29 12:50:34;;;;;;;3.13;1.10;;;20.60;99.90;;;;;;5067505;27;20300;-62
2022/08/29 12:53:05;;;;;;;2.72;1.17;;;20.80;99.90;;;;;;5081209;27;20732;-62
2022/08/29 12:55:37;;;;;;;1.58;1.33;;;20.70;30.30;;;;;;5065986;27;20200;-62
2022/08/29 12:58:04;;;;;;;1.88;1.00;;;21.00;1.00;;;;;;5094538;27;20280;-62
2022/08/29 13:00:34;;;;;;;2.55;1.30;;;21.00;1.00;;;;;;5098066;27;21198;-62
2022/08/29 13:03:04;;;;;;;3.08;1.00;;;20.90;1.00;;;;;;5101784;27;20226;-62
2022/08/29 13:05:34;;;;;;;0.60;0.60;;;20.90;1.40;;;;;;5073749;27;20269;-62
2022/08/29 13:08:06;;;;;;;1.25;1.15;;;20.80;1.00;;;;;;5066038;27;20227;-62
2022/08/29 13:10:34;;;;;;;2.60;1.17;;;20.70;1.00;;;;;;5087712;27;20656;-63